Time;durP1;ratioP1;P1;durP2;ratioP2;P2;SDS_P1;SDS_P2;PMS_P1;PMS_P2;Temp;Humidity;BMP_temperature;BMP_pressure;BME280_temperature;BME280_humidity;BME280_pressure;Samples;Min_cycle;Max_cycle;Signal;HPM_P1;HPM_P2
2023/05/27 00:00:52;;;;;;;14.00;9.90;;;;;;;17.30;100.00;100621.45;109448;1251;61502;-84
2023/05/27 00:03:20;;;;;;;12.60;10.50;;;;;;;17.32;100.00;100615.61;108618;1251;71446;-86
2023/05/27 00:05:48;;;;;;;12.50;10.60;;;;;;;17.38;100.00;100616.46;109146;1251;60403;-86
2023/05/27 00:08:17;;;;;;;12.20;11.00;;;;;;;17.48;100.00;100612.64;109495;1251;58742;-87
2023/05/27 00:10:45;;;;;;;12.80;8.50;;;;;;;17.53;100.00;100613.96;109673;1251;71999;-86
2023/05/27 00:13:12;;;;;;;12.40;9.30;;;;;;;17.53;100.00;100616.79;109705;1251;62216;-85
2023/05/27 00:15:40;;;;;;;10.40;9.30;;;;;;;17.55;100.00;100612.00;109680;1251;70299;-86
2023/05/27 00:18:08;;;;;;;14.90;10.20;;;;;;;17.58;100.00;100614.51;109812;1250;60722;-86
2023/05/27 00:20:36;;;;;;;10.30;7.80;;;;;;;17.59;100.00;100613.73;109350;1251;59557;-86
2023/05/27 00:23:04;;;;;;;10.20;9.10;;;;;;;17.59;100.00;100613.20;107389;1251;71854;-88
2023/05/27 00:25:32;;;;;;;10.90;9.00;;;;;;;17.59;100.00;100614.05;106953;1253;62392;-88
2023/05/27 00:27:59;;;;;;;14.00;10.20;;;;;;;17.60;100.00;100611.69;106287;1255;72784;-88
2023/05/27 00:30:27;;;;;;;14.20;10.50;;;;;;;17.62;100.00;100599.54;107260;1254;60504;-86
2023/05/27 00:33:33;;;;;;;14.20;10.30;;;;;;;17.70;100.00;100599.15;103223;1292;615858;-85
2023/05/27 00:36:02;;;;;;;11.20;10.10;;;;;;;17.77;100.00;100596.75;105039;1271;60101;-89
2023/05/27 00:38:30;;;;;;;11.60;9.50;;;;;;;17.82;100.00;100590.83;105159;1266;60561;-89
2023/05/27 00:40:57;;;;;;;14.00;10.30;;;;;;;17.85;100.00;100590.05;105354;1264;73385;-85
2023/05/27 00:43:24;;;;;;;12.30;9.60;;;;;;;17.85;100.00;100590.61;105357;1263;63776;-87
2023/05/27 00:45:51;;;;;;;15.20;10.70;;;;;;;17.83;100.00;100588.84;104914;1257;634771;-89
2023/05/27 00:48:20;;;;;;;16.00;10.20;;;;;;;17.82;100.00;100585.36;105646;1260;61958;-87
2023/05/27 00:50:48;;;;;;;14.00;9.80;;;;;;;17.81;100.00;100585.94;105627;1256;61530;-87
2023/05/27 00:53:18;;;;;;;16.60;10.50;;;;;;;17.80;100.00;100580.60;105554;1260;72186;-87
2023/05/27 00:55:45;;;;;;;16.30;10.90;;;;;;;17.76;100.00;100578.09;105472;1256;63908;-88
2023/05/27 00:58:12;;;;;;;14.90;10.90;;;;;;;17.73;100.00;100575.84;105540;1257;72455;-89
2023/05/27 01:00:40;;;;;;;15.60;10.60;;;;;;;17.71;100.00;100576.06;105921;1254;60789;-88
2023/05/27 01:03:07;;;;;;;11.10;8.90;;;;;;;17.67;100.00;100577.68;105885;1254;59541;-88
2023/05/27 01:05:35;;;;;;;14.00;10.10;;;;;;;17.59;100.00;100579.27;105705;1259;73160;-87
2023/05/27 01:08:17;;;;;;;12.30;9.80;;;;;;;17.53;100.00;100575.44;105907;1259;64484;-86
2023/05/27 01:10:47;;;;;;;12.00;9.90;;;;;;;17.46;100.00;100576.05;106012;1259;71525;-87
2023/05/27 01:13:36;;;;;;;15.90;11.60;;;;;;;17.41;100.00;100577.18;105822;1259;60600;-90
2023/05/27 01:16:08;;;;;;;14.40;11.50;;;;;;;17.40;100.00;100580.25;105811;1254;60139;-85
2023/05/27 01:18:35;;;;;;;13.00;10.40;;;;;;;17.43;100.00;100575.09;105850;1256;71810;-86
2023/05/27 01:21:06;;;;;;;12.80;11.40;;;;;;;17.44;100.00;100578.92;105716;1259;63715;-88
2023/05/27 01:23:33;;;;;;;12.60;11.20;;;;;;;17.42;100.00;100580.48;105804;1255;71415;-92
2023/05/27 01:26:01;;;;;;;18.10;11.80;;;;;;;17.45;100.00;100572.59;106115;1251;61687;-86
2023/05/27 01:28:31;;;;;;;13.30;10.90;;;;;;;17.51;100.00;100572.23;106879;1257;59666;-87
2023/05/27 01:31:24;;;;;;;13.00;11.50;;;;;;;17.56;100.00;100564.66;106086;1253;73241;-87
2023/05/27 01:34:02;;;;;;;12.90;11.40;;;;;;;17.60;100.00;100569.11;106164;1253;63575;-86
2023/05/27 01:36:32;;;;;;;15.20;11.20;;;;;;;17.57;100.00;100567.21;106136;1251;71247;-85
2023/05/27 01:38:59;;;;;;;17.20;11.20;;;;;;;17.56;100.00;100562.02;105865;1255;60786;-88
2023/05/27 01:41:27;;;;;;;13.40;9.90;;;;;;;17.57;100.00;100564.55;105827;1253;60296;-88
2023/05/27 01:43:54;;;;;;;14.20;10.50;;;;;;;17.57;100.00;100564.02;105877;1255;72051;-85
2023/05/27 01:46:22;;;;;;;11.40;10.20;;;;;;;17.57;100.00;100570.08;105859;1251;64157;-86
2023/05/27 01:48:49;;;;;;;13.30;10.50;;;;;;;17.58;100.00;100569.27;105718;1253;71426;-85
2023/05/27 01:51:15;;;;;;;14.40;10.50;;;;;;;17.59;100.00;100571.65;105865;1254;59816;-86
2023/05/27 01:53:43;;;;;;;15.10;11.20;;;;;;;17.59;100.00;100567.96;105878;1254;59515;-86
2023/05/27 01:56:10;;;;;;;12.50;10.20;;;;;;;17.59;100.00;100570.62;105841;1253;71560;-87
2023/05/27 01:58:37;;;;;;;12.30;9.40;;;;;;;17.59;100.00;100568.33;105892;1255;63888;-87
2023/05/27 02:03:27;;;;;;;12.70;10.80;;;;;;;17.61;100.00;100569.72;102864;1289;600891;-86
2023/05/27 02:05:55;;;;;;;10.40;9.50;;;;;;;17.55;100.00;100571.84;105243;1264;60759;-86
2023/05/27 02:08:27;;;;;;;11.00;9.00;;;;;;;17.49;100.00;100580.02;104930;1269;60279;-86
2023/05/27 02:10:55;;;;;;;10.50;9.10;;;;;;;17.42;100.00;100585.25;105069;1264;74911;-87
2023/05/27 02:13:22;;;;;;;10.70;9.70;;;;;;;17.36;100.00;100581.30;105349;1263;63529;-89
2023/05/27 02:15:50;;;;;;;12.50;9.70;;;;;;;17.35;100.00;100578.94;107898;1263;71681;-86
2023/05/27 02:18:20;;;;;;;11.90;9.60;;;;;;;17.36;100.00;100582.92;108771;1254;59922;-88
2023/05/27 02:20:50;;;;;;;11.20;9.60;;;;;;;17.38;100.00;100576.73;109135;1254;58774;-87
2023/05/27 02:23:19;;;;;;;14.20;8.40;;;;;;;17.44;100.00;100577.83;109214;1254;70725;-88
2023/05/27 02:25:48;;;;;;;12.20;9.30;;;;;;;17.52;100.00;100573.34;109495;1250;62785;-87
2023/05/27 02:28:18;;;;;;;13.20;10.50;;;;;;;17.63;100.00;100575.61;109700;1256;72068;-85
2023/05/27 02:30:45;;;;;;;15.50;11.80;;;;;;;17.70;100.00;100575.64;109712;1251;58787;-86
2023/05/27 02:33:13;;;;;;;12.60;11.30;;;;;;;17.76;100.00;100578.27;108980;1250;58842;-86
2023/05/27 02:35:41;;;;;;;12.10;10.70;;;;;;;17.79;100.00;100579.05;109888;1250;71055;-86
2023/05/27 02:38:09;;;;;;;10.30;9.20;;;;;;;17.81;100.00;100575.85;109819;1251;62618;-86
2023/05/27 02:40:37;;;;;;;10.50;9.40;;;;;;;17.82;100.00;100575.79;109851;1250;75248;-85
2023/05/27 02:43:05;;;;;;;10.40;9.40;;;;;;;17.83;100.00;100579.42;109877;1250;60573;-88
2023/05/27 02:45:33;;;;;;;11.60;9.60;;;;;;;17.81;100.00;100576.59;109794;1250;59578;-87
2023/05/27 02:48:02;;;;;;;13.20;10.40;;;;;;;17.81;100.00;100580.32;109713;1250;71213;-85
2023/05/27 02:50:30;;;;;;;13.40;10.40;;;;;;;17.86;100.00;100585.02;109727;1250;62337;-85
2023/05/27 02:52:57;;;;;;;13.80;10.40;;;;;;;17.87;100.00;100583.48;109738;1250;71499;-84
2023/05/27 02:55:25;;;;;;;12.60;10.70;;;;;;;17.89;100.00;100585.27;109787;1250;60199;-85
2023/05/27 02:57:53;;;;;;;12.80;9.60;;;;;;;17.94;100.00;100585.69;109766;1250;59624;-86
2023/05/27 03:00:21;;;;;;;10.20;9.10;;;;;;;17.97;100.00;100584.49;109684;1250;73466;-86
2023/05/27 03:02:49;;;;;;;10.30;9.30;;;;;;;17.99;100.00;100587.01;109704;1250;61340;-87
2023/05/27 03:05:17;;;;;;;10.90;9.70;;;;;;;18.03;100.00;100588.20;109516;1251;70862;-86
2023/05/27 03:07:45;;;;;;;10.90;9.90;;;;;;;18.09;100.00;100591.52;108299;1254;60859;-87
2023/05/27 03:10:12;;;;;;;13.10;10.10;;;;;;;18.14;100.00;100589.65;106448;1251;60127;-92
2023/05/27 03:12:40;;;;;;;16.10;10.20;;;;;;;18.18;100.00;100583.83;106356;1256;75369;-87
2023/05/27 03:15:08;;;;;;;11.40;10.00;;;;;;;18.20;100.00;100591.55;106310;1251;62489;-86
2023/05/27 03:17:39;;;;;;;9.90;9.00;;;;;;;18.19;100.00;100586.76;106943;1250;72966;-87
2023/05/27 03:20:11;;;;;;;15.70;10.90;;;;;;;18.16;100.00;100585.57;109669;1251;60466;-87
2023/05/27 03:22:39;;;;;;;10.30;9.10;;;;;;;18.17;100.00;100586.04;109548;1250;59154;-88
2023/05/27 03:25:07;;;;;;;11.30;10.10;;;;;;;18.17;100.00;100589.92;109723;1250;72041;-86
2023/05/27 03:28:56;;;;;;;11.30;10.20;;;;;;;18.21;100.00;100586.92;102983;1292;599810;-88
2023/05/27 03:31:24;;;;;;;13.80;10.90;;;;;;;18.20;100.00;100593.04;104958;1266;60230;-90
2023/05/27 03:33:59;;;;;;;12.50;10.60;;;;;;;18.20;100.00;100588.42;104826;1266;60296;-87
2023/05/27 03:36:27;;;;;;;11.90;9.60;;;;;;;18.20;100.00;100589.97;105100;1264;71384;-86
2023/05/27 03:38:56;;;;;;;10.10;9.10;;;;;;;18.22;100.00;100588.88;105451;1263;63134;-86
2023/05/27 03:41:25;;;;;;;11.40;10.20;;;;;;;18.23;100.00;100589.86;104648;1260;610348;-89
2023/05/27 03:43:54;;;;;;;11.00;9.90;;;;;;;18.25;100.00;100582.30;105197;1267;62247;-90
2023/05/27 03:46:22;;;;;;;11.40;10.20;;;;;;;18.29;100.00;100583.02;105336;1270;61010;-85
2023/05/27 03:48:50;;;;;;;11.10;9.70;;;;;;;18.32;100.00;100585.39;105378;1260;71039;-88
2023/05/27 03:51:18;;;;;;;9.90;8.30;;;;;;;18.31;100.00;100586.11;105386;1265;64498;-87
2023/05/27 04:05:52;;;;;;;11.80;9.80;;;;;;;18.39;100.00;100596.05;102720;1293;611988;-88
2023/05/27 04:08:41;;;;;;;11.60;10.50;;;;;;;18.40;100.00;100592.79;105359;1263;59321;-92
2023/05/27 04:11:12;;;;;;;12.70;10.00;;;;;;;18.45;100.00;100591.93;105215;1264;59605;-90
2023/05/27 04:13:40;;;;;;;10.20;9.30;;;;;;;18.51;100.00;100596.02;105452;1261;72296;-87
2023/05/27 04:16:07;;;;;;;9.10;8.30;;;;;;;18.53;100.00;100591.89;105289;1266;63944;-91
2023/05/27 04:18:36;;;;;;;9.60;7.40;;;;;;;18.56;100.00;100593.90;104676;1260;717793;-92
2023/05/27 04:21:04;;;;;;;9.80;8.70;;;;;;;18.57;100.00;100593.46;105616;1260;59631;-91
2023/05/27 04:23:31;;;;;;;10.70;9.10;;;;;;;18.56;100.00;100592.67;105572;1259;59691;-87
2023/05/27 04:25:59;;;;;;;9.60;8.60;;;;;;;18.56;100.00;100593.15;105473;1263;72057;-90
2023/05/27 04:28:34;;;;;;;8.60;7.90;;;;;;;18.61;100.00;100591.83;105473;1260;65421;-89
2023/05/27 04:31:01;;;;;;;9.50;8.60;;;;;;;18.65;100.00;100599.95;105275;1266;72490;-90
2023/05/27 04:33:35;;;;;;;10.30;9.40;;;;;;;18.70;100.00;100600.58;105312;1260;59761;-90
2023/05/27 04:36:03;;;;;;;10.30;9.00;;;;;;;18.77;100.00;100602.23;105416;1262;59926;-88
2023/05/27 04:38:33;;;;;;;10.20;9.30;;;;;;;18.82;100.00;100603.30;105237;1265;72958;-88
2023/05/27 04:41:04;;;;;;;11.00;10.00;;;;;;;18.83;100.00;100607.60;105638;1257;63956;-91
2023/05/27 04:43:43;;;;;;;9.80;9.00;;;;;;;18.85;100.00;100609.77;105454;1257;72688;-87
2023/05/27 04:46:14;;;;;;;12.60;10.70;;;;;;;18.83;100.00;100610.63;105431;1257;61840;-89
2023/05/27 04:48:41;;;;;;;13.30;8.90;;;;;;;18.83;100.00;100613.56;105670;1257;59641;-91
2023/05/27 04:51:08;;;;;;;10.40;9.30;;;;;;;18.80;100.00;100608.46;105511;1257;73024;-91
2023/05/27 04:53:35;;;;;;;9.10;8.30;;;;;;;18.82;100.00;100608.67;105566;1259;63699;-88
2023/05/27 04:56:02;;;;;;;9.00;8.10;;;;;;;18.85;100.00;100608.23;105613;1257;72696;-88
2023/05/27 04:58:31;;;;;;;10.40;9.40;;;;;;;18.85;100.00;100612.60;105774;1254;61876;-86
2023/05/27 05:01:00;;;;;;;9.40;8.60;;;;;;;18.83;100.00;100608.92;105801;1257;59566;-89
2023/05/27 05:03:36;;;;;;;10.00;9.00;;;;;;;18.82;100.00;100611.43;105655;1257;73212;-87
2023/05/27 05:06:05;;;;;;;9.90;8.90;;;;;;;18.84;100.00;100606.52;105785;1255;62600;-90
2023/05/27 05:08:33;;;;;;;10.60;9.10;;;;;;;18.86;100.00;100606.77;105622;1254;72698;-90
2023/05/27 05:11:01;;;;;;;11.30;9.90;;;;;;;18.87;100.00;100611.40;105756;1257;60977;-87
2023/05/27 05:13:29;;;;;;;11.60;10.40;;;;;;;18.90;100.00;100607.38;105641;1254;60212;-91
2023/05/27 05:15:57;;;;;;;10.80;9.90;;;;;;;18.91;100.00;100616.13;105541;1259;71533;-91
2023/05/27 05:18:24;;;;;;;10.10;9.20;;;;;;;18.91;100.00;100614.04;105779;1257;64048;-90
2023/05/27 05:20:51;;;;;;;10.00;8.60;;;;;;;18.90;100.00;100615.71;105466;1257;72639;-91
2023/05/27 05:23:23;;;;;;;9.70;8.10;;;;;;;18.91;100.00;100617.42;105713;1256;59997;-91
2023/05/27 05:25:58;;;;;;;9.70;8.70;;;;;;;18.92;100.00;100614.48;105737;1257;59999;-88
2023/05/27 05:28:25;;;;;;;10.10;9.10;;;;;;;18.94;100.00;100614.08;105895;1256;72961;-89
2023/05/27 05:30:51;;;;;;;11.00;9.10;;;;;;;18.99;100.00;100615.39;105879;1259;63949;-86
2023/05/27 05:33:19;;;;;;;9.70;8.80;;;;;;;19.06;100.00;100617.33;106156;1258;72636;-89
2023/05/27 05:35:50;;;;;;;9.30;8.50;;;;;;;19.12;100.00;100615.90;106137;1257;61829;-87
2023/05/27 05:38:23;;;;;;;10.50;9.40;;;;;;;19.16;100.00;100618.67;106051;1252;60381;-88
2023/05/27 05:40:52;;;;;;;10.30;9.20;;;;;;;19.23;100.00;100620.14;106040;1256;71824;-90
2023/05/27 05:43:20;;;;;;;10.70;9.30;;;;;;;19.33;100.00;100617.80;106000;1256;62932;-87
2023/05/27 05:45:52;;;;;;;10.50;9.40;;;;;;;19.43;100.00;100623.14;105786;1257;71882;-87
2023/05/27 05:48:19;;;;;;;9.90;8.80;;;;;;;19.51;100.00;100621.30;105920;1256;62024;-89
2023/05/27 05:50:46;;;;;;;9.90;9.00;;;;;;;19.59;100.00;100619.19;105872;1254;59835;-89
2023/05/27 05:53:14;;;;;;;10.50;9.60;;;;;;;19.65;100.00;100617.08;106389;1253;72865;-87
2023/05/27 05:55:42;;;;;;;11.10;9.40;;;;;;;19.73;100.00;100614.96;107354;1255;63848;-87
2023/05/27 05:58:10;;;;;;;10.70;9.60;;;;;;;19.81;100.00;100610.48;107134;1254;72654;-87
2023/05/27 06:00:37;;;;;;;11.20;9.10;;;;;;;19.90;100.00;100615.29;107189;1252;60063;-87
2023/05/27 06:03:25;;;;;;;10.30;8.90;;;;;;;19.98;100.00;100610.87;106726;1253;60262;-87
2023/05/27 06:05:55;;;;;;;14.60;9.60;;;;;;;20.05;100.00;100614.41;106362;1253;74394;-89
2023/05/27 06:08:22;;;;;;;10.00;8.70;;;;;;;20.12;100.00;100616.73;106117;1253;63949;-88
2023/05/27 06:10:56;;;;;;;10.70;9.60;;;;;;;20.19;100.00;100616.59;106058;1256;72727;-85
2023/05/27 06:13:24;;;;;;;9.70;8.80;;;;;;;20.26;100.00;100612.02;106183;1254;60338;-88
2023/05/27 06:15:55;;;;;;;10.00;9.10;;;;;;;20.32;100.00;100609.23;106651;1257;60097;-88
2023/05/27 06:18:23;;;;;;;9.90;8.90;;;;;;;20.36;100.00;100611.16;106360;1257;71440;-87
2023/05/27 06:20:50;;;;;;;10.10;9.00;;;;;;;20.39;100.00;100615.50;106108;1253;64001;-89
2023/05/27 06:23:18;;;;;;;10.30;9.50;;;;;;;20.42;100.00;100615.02;106220;1254;71812;-89
2023/05/27 06:26:13;;;;;;;11.50;10.30;;;;;;;20.50;100.00;100613.08;106013;1257;60844;-89
2023/05/27 06:28:45;;;;;;;13.70;8.80;;;;;;;20.59;100.00;100617.52;106055;1253;59616;-87
2023/05/27 06:31:12;;;;;;;13.10;9.00;;;;;;;20.68;100.00;100620.91;106165;1256;72745;-86
2023/05/27 06:33:41;;;;;;;10.30;9.30;;;;;;;20.76;100.00;100619.49;106239;1256;63757;-90
2023/05/27 06:36:08;;;;;;;12.10;9.20;;;;;;;20.83;100.00;100618.39;105995;1256;71532;-86
2023/05/27 06:38:36;;;;;;;9.40;8.40;;;;;;;20.85;100.00;100620.89;106004;1254;59754;-86
2023/05/27 06:41:03;;;;;;;12.80;9.60;;;;;;;20.84;100.00;100623.36;106273;1254;59698;-87
2023/05/27 06:43:35;;;;;;;10.40;9.40;;;;;;;20.84;100.00;100620.86;106299;1254;73442;-88
2023/05/27 06:46:28;;;;;;;10.70;9.60;;;;;;;20.88;100.00;100623.78;106131;1251;62106;-88
2023/05/27 06:49:05;;;;;;;9.60;8.70;;;;;;;20.91;100.00;100622.37;105971;1252;72650;-87
2023/05/27 06:51:32;;;;;;;12.40;11.00;;;;;;;20.95;100.00;100623.98;106019;1254;59740;-88
2023/05/27 06:53:59;;;;;;;11.40;10.20;;;;;;;21.00;100.00;100624.00;106124;1254;60060;-91
2023/05/27 06:56:33;;;;;;;10.20;9.20;;;;;;;21.08;100.00;100628.48;106006;1254;72960;-88
2023/05/27 06:59:18;;;;;;;10.20;9.20;;;;;;;21.18;100.00;100626.52;106243;1255;62532;-88
2023/05/27 07:01:47;;;;;;;11.10;9.50;;;;;;;21.24;100.00;100623.80;106023;1254;70343;-89
2023/05/27 07:04:16;;;;;;;9.60;8.70;;;;;;;21.31;100.00;100621.81;106247;1254;59737;-88
2023/05/27 07:06:53;;;;;;;12.00;10.80;;;;;;;21.39;100.00;100625.41;106370;1254;60348;-88
2023/05/27 07:09:22;;;;;;;9.90;8.90;;;;;;;21.46;100.00;100624.30;106245;1251;72804;-89
2023/05/27 07:11:49;;;;;;;11.30;10.20;;;;;;;21.55;100.00;100624.69;106163;1254;64729;-89
2023/05/27 07:14:36;;;;;;;11.00;9.60;;;;;;;21.65;100.00;100626.59;106179;1254;72782;-88
2023/05/27 07:17:03;;;;;;;11.10;9.20;;;;;;;21.72;100.00;100624.55;106123;1256;60805;-88
2023/05/27 07:19:30;;;;;;;10.50;9.50;;;;;;;21.72;100.00;100626.11;105979;1253;60324;-88
2023/05/27 07:22:00;;;;;;;11.50;9.50;;;;;;;21.72;100.00;100622.78;105995;1254;72124;-89
2023/05/27 07:24:31;;;;;;;11.80;10.30;;;;;;;21.76;100.00;100618.98;106068;1256;62578;-87
2023/05/27 07:26:58;;;;;;;15.00;10.60;;;;;;;21.84;100.00;100620.45;105955;1258;72585;-88
2023/05/27 07:29:25;;;;;;;12.40;10.60;;;;;;;21.89;100.00;100618.67;106218;1257;60437;-88
2023/05/27 07:31:53;;;;;;;11.50;10.50;;;;;;;21.93;100.00;100619.06;106409;1255;60299;-88
2023/05/27 07:34:25;;;;;;;11.80;9.50;;;;;;;21.99;100.00;100620.86;106047;1253;73118;-86
2023/05/27 07:36:52;;;;;;;13.40;10.60;;;;;;;21.99;100.00;100622.75;106056;1257;63619;-87
2023/05/27 07:39:19;;;;;;;11.30;10.30;;;;;;;22.01;100.00;100623.14;106738;1254;72465;-89
2023/05/27 07:45:17;;;;;;;11.90;10.50;;;;;;;22.05;100.00;100626.78;106248;1254;60366;-90
2023/05/27 07:47:46;;;;;;;14.00;11.20;;;;;;;22.06;100.00;100627.27;105996;1254;72981;-88
2023/05/27 07:50:13;;;;;;;11.20;10.30;;;;;;;22.09;100.00;100629.52;105803;1254;62339;-88
2023/05/27 07:52:43;;;;;;;12.10;10.70;;;;;;;22.10;100.00;100628.98;105928;1252;72442;-89
2023/05/27 07:55:26;;;;;;;12.30;10.30;;;;;;;22.11;100.00;100629.29;106102;1253;62487;-88
2023/05/27 07:57:56;;;;;;;10.90;9.90;;;;;;;22.08;100.00;100628.86;106124;1252;59829;-91
2023/05/27 08:00:28;;;;;;;11.40;10.10;;;;;;;22.08;100.00;100625.75;106218;1253;73107;-88
2023/05/27 08:02:57;;;;;;;15.50;10.40;;;;;;;22.10;100.00;100629.05;106164;1252;63794;-91
2023/05/27 08:05:53;;;;;;;13.60;10.40;;;;;;;22.11;100.00;100629.11;106235;1256;72744;-90
2023/05/27 08:08:42;;;;;;;10.70;9.70;;;;;;;22.14;100.00;100629.09;105946;1257;60761;-88
2023/05/27 08:11:34;;;;;;;10.80;9.70;;;;;;;22.21;100.00;100630.52;105843;1260;59629;-88
2023/05/27 08:14:12;;;;;;;11.30;10.10;;;;;;;22.24;100.00;100630.25;106171;1253;72066;-87
2023/05/27 08:16:46;;;;;;;10.90;9.80;;;;;;;22.28;100.00;100629.98;106048;1252;63891;-89
2023/05/27 08:19:24;;;;;;;9.40;8.50;;;;;;;22.33;100.00;100631.01;106151;1254;72385;-89
2023/05/27 08:22:03;;;;;;;10.30;9.10;;;;;;;22.36;100.00;100630.63;106102;1256;60568;-87
2023/05/27 08:24:51;;;;;;;10.80;9.80;;;;;;;22.38;100.00;100632.44;106080;1253;60447;-87
2023/05/27 08:27:48;;;;;;;10.80;9.70;;;;;;;22.40;100.00;100636.69;105961;1251;72436;-90
2023/05/27 08:30:46;;;;;;;11.80;8.90;;;;;;;22.44;100.00;100635.16;106089;1256;63714;-91
2023/05/27 08:33:21;;;;;;;11.10;8.70;;;;;;;22.49;100.00;100627.41;106090;1253;72803;-90
2023/05/27 08:35:48;;;;;;;11.80;8.90;;;;;;;22.59;100.00;100626.05;106176;1252;60452;-88
2023/05/27 08:38:18;;;;;;;12.20;9.40;;;;;;;22.67;100.00;100628.50;106128;1253;60492;-87
2023/05/27 08:40:45;;;;;;;9.90;8.50;;;;;;;22.76;100.00;100622.38;105927;1256;72686;-88
2023/05/27 08:43:12;;;;;;;10.80;9.20;;;;;;;22.85;100.00;100622.77;105932;1254;63922;-88
2023/05/27 08:45:44;;;;;;;12.30;10.00;;;;;;;22.91;100.00;100619.05;106065;1254;73842;-89
2023/05/27 08:48:11;;;;;;;11.10;9.60;;;;;;;22.96;100.00;100621.63;106012;1254;60453;-91
2023/05/27 08:50:40;;;;;;;11.40;10.20;;;;;;;23.02;100.00;100619.88;105906;1252;60597;-88
2023/05/27 08:53:07;;;;;;;10.40;8.70;;;;;;;23.06;100.00;100622.27;105851;1254;73872;-90
2023/05/27 08:55:35;;;;;;;10.60;9.60;;;;;;;23.09;100.00;100619.88;105874;1254;63813;-88
2023/05/27 08:58:08;;;;;;;9.50;8.60;;;;;;;23.14;100.00;100618.29;105784;1254;72680;-89
2023/05/27 09:00:40;;;;;;;10.80;9.70;;;;;;;23.20;100.00;100617.79;106005;1253;60517;-89
2023/05/27 09:03:23;;;;;;;11.30;10.30;;;;;;;23.30;100.00;100620.71;105957;1256;60441;-89
2023/05/27 09:05:51;;;;;;;12.00;10.10;;;;;;;23.44;100.00;100627.94;105874;1254;72363;-88
2023/05/27 09:08:19;;;;;;;9.90;8.60;;;;;;;23.57;100.00;100621.44;105967;1254;64472;-90
2023/05/27 09:10:47;;;;;;;10.60;9.50;;;;;;;23.72;100.00;100621.08;105965;1256;72700;-89
2023/05/27 09:13:26;;;;;;;11.40;10.00;;;;;;;23.90;100.00;100618.30;105783;1254;61869;-88
2023/05/27 09:16:00;;;;;;;60.20;54.10;;;;;;;24.13;100.00;100614.83;105970;1252;60348;-87
2023/05/27 09:18:32;;;;;;;12.30;10.50;;;;;;;24.34;100.00;100613.98;105922;1257;72752;-86
2023/05/27 09:20:59;;;;;;;10.50;9.50;;;;;;;24.52;100.00;100614.41;106453;1253;62665;-87
2023/05/27 09:23:26;;;;;;;20.70;17.30;;;;;;;24.71;100.00;100614.60;106546;1254;72471;-84
2023/05/27 09:25:53;;;;;;;12.00;10.40;;;;;;;24.94;100.00;100610.24;106341;1251;60518;-89
2023/05/27 09:28:24;;;;;;;11.60;8.90;;;;;;;25.20;100.00;100607.33;106308;1252;60349;-87
2023/05/27 09:31:02;;;;;;;11.10;8.90;;;;;;;25.41;100.00;100604.61;106190;1256;73812;-88
2023/05/27 09:33:32;;;;;;;11.00;9.90;;;;;;;25.59;100.00;100597.98;106323;1253;62682;-86
2023/05/27 09:36:01;;;;;;;10.30;9.30;;;;;;;25.73;100.00;100596.79;106253;1254;72589;-88
2023/05/27 09:38:36;;;;;;;9.70;8.90;;;;;;;25.83;100.00;100592.47;106496;1253;60447;-86
2023/05/27 09:41:05;;;;;;;9.90;7.90;;;;;;;25.92;100.00;100587.33;107019;1252;60546;-85
2023/05/27 09:43:35;;;;;;;10.10;9.10;;;;;;;26.03;100.00;100584.33;106392;1256;73858;-85
2023/05/27 09:46:12;;;;;;;10.10;8.10;;;;;;;26.11;100.00;100578.50;106788;1254;62705;-85
2023/05/27 09:48:41;;;;;;;10.60;9.00;;;;;;;26.18;100.00;100572.56;107523;1253;72738;-86
2023/05/27 09:51:08;;;;;;;9.00;8.20;;;;;;;26.23;100.00;100570.58;108099;1256;59138;-85
2023/05/27 09:53:35;;;;;;;10.00;8.90;;;;;;;26.22;100.00;100567.30;107808;1252;60565;-83
2023/05/27 09:56:02;;;;;;;9.90;8.90;;;;;;;26.20;100.00;100560.29;107508;1253;72575;-88
2023/05/27 09:58:31;;;;;;;11.50;9.30;;;;;;;26.15;100.00;100554.59;106469;1256;63678;-89
2023/05/27 10:01:01;;;;;;;7.80;7.10;;;;;;;26.05;100.00;100546.58;106322;1254;73160;-88
2023/05/27 10:03:28;;;;;;;10.50;8.50;;;;;;;25.87;100.00;100539.19;106673;1256;60597;-87
2023/05/27 10:05:56;;;;;;;9.20;8.50;;;;;;;25.72;100.00;100537.64;106499;1253;60873;-87
2023/05/27 10:08:26;;;;;;;9.70;8.70;;;;;;;25.60;100.00;100536.05;106515;1256;73912;-88
2023/05/27 10:10:57;;;;;;;8.40;7.70;;;;;;;25.47;100.00;100536.84;106148;1256;63799;-90
2023/05/27 10:13:26;;;;;;;8.50;7.70;;;;;;;25.35;100.00;100537.80;106178;1254;71731;-92
2023/05/27 10:15:53;;;;;;;8.80;8.10;;;;;;;25.21;100.00;100538.09;106108;1254;60501;-85
2023/05/27 10:18:25;;;;;;;10.10;8.50;;;;;;;25.09;100.00;100537.04;106307;1251;60418;-90
2023/05/27 10:20:58;;;;;;;9.70;8.00;;;;;;;24.97;100.00;100533.55;106257;1256;74229;-87
2023/05/27 10:23:31;;;;;;;10.90;8.90;;;;;;;24.83;100.00;100531.89;106317;1254;62547;-90
2023/05/27 10:26:05;;;;;;;8.20;7.50;;;;;;;24.71;100.00;100525.56;105974;1254;72511;-90
2023/05/27 10:28:39;;;;;;;8.40;7.40;;;;;;;24.61;100.00;100521.34;106063;1254;61856;-91
2023/05/27 10:31:19;;;;;;;10.20;8.00;;;;;;;24.52;100.00;100519.16;106449;1254;60417;-91
2023/05/27 10:34:12;;;;;;;8.20;7.50;;;;;;;24.44;100.00;100517.95;106043;1256;73947;-92
2023/05/27 10:36:40;;;;;;;10.50;7.70;;;;;;;24.36;100.00;100517.06;106271;1256;64101;-90
2023/05/27 10:39:20;;;;;;;8.10;7.30;;;;;;;24.31;100.00;100520.98;106307;1254;71609;-91
2023/05/27 10:41:54;;;;;;;8.30;7.50;;;;;;;24.24;100.00;100523.64;106037;1256;60529;-86
2023/05/27 10:44:31;;;;;;;8.70;6.60;;;;;;;24.15;100.00;100527.81;106136;1252;60319;-88
2023/05/27 10:47:13;;;;;;;7.90;6.90;;;;;;;24.06;100.00;100530.23;105926;1254;74017;-89
2023/05/27 10:49:47;;;;;;;6.70;6.10;;;;;;;24.00;100.00;100525.02;106084;1256;62998;-91
2023/05/27 10:52:25;;;;;;;7.80;7.00;;;;;;;23.92;100.00;100525.72;106266;1253;72077;-89
2023/05/27 10:54:52;;;;;;;8.50;7.70;;;;;;;23.85;100.00;100520.83;106509;1254;60455;-87
2023/05/27 10:57:22;;;;;;;10.00;7.30;;;;;;;23.77;100.00;100509.25;106580;1253;60938;-88
2023/05/27 10:59:53;;;;;;;8.00;6.60;;;;;;;23.76;100.00;100507.48;106161;1262;73654;-88
2023/05/27 11:02:24;;;;;;;8.70;7.80;;;;;;;23.73;100.00;100503.34;106152;1259;64225;-90
2023/05/27 11:04:54;;;;;;;8.60;7.00;;;;;;;23.72;100.00;100505.75;106290;1255;72832;-90
2023/05/27 11:07:38;;;;;;;7.80;7.20;;;;;;;23.72;100.00;100507.92;106476;1257;60792;-88
2023/05/27 11:10:09;;;;;;;8.30;7.60;;;;;;;23.74;100.00;100503.44;106181;1259;60881;-89
2023/05/27 11:12:36;;;;;;;9.00;7.10;;;;;;;23.75;100.00;100502.23;106250;1259;73955;-89
2023/05/27 11:15:03;;;;;;;10.20;7.00;;;;;;;23.77;100.00;100499.64;105834;1256;63898;-88
2023/05/27 11:17:31;;;;;;;7.40;6.70;;;;;;;23.81;100.00;100501.92;106056;1257;72584;-87
2023/05/27 11:20:05;;;;;;;8.50;7.80;;;;;;;23.86;100.00;100502.95;106160;1257;60701;-88
2023/05/27 11:22:36;;;;;;;9.00;7.90;;;;;;;23.92;100.00;100505.02;106270;1260;60495;-88
2023/05/27 11:25:05;;;;;;;9.10;7.70;;;;;;;24.00;100.00;100507.79;106197;1259;73055;-88
2023/05/27 11:27:35;;;;;;;11.10;7.90;;;;;;;24.09;100.00;100503.05;106527;1261;64437;-88
2023/05/27 11:30:09;;;;;;;9.20;8.40;;;;;;;24.16;100.00;100505.77;106688;1261;71631;-89
2023/05/27 11:32:37;;;;;;;9.20;8.40;;;;;;;24.20;100.00;100508.83;107191;1253;60529;-87
2023/05/27 11:35:06;;;;;;;10.60;8.90;;;;;;;24.20;100.00;100521.73;107294;1253;60402;-88
2023/05/27 11:37:35;;;;;;;4.70;3.30;;;;;;;24.09;100.00;100537.85;107175;1253;72729;-89